Decoded Metar for KINF ( in ) (IATA:) | Meteo·Mobile Aviation Weather
aviador You're here:

KINF Decoded Metar

in
Report Time2018-09-20 02:35:00
UTC Time2018-09-20 02:53:52
Flight Rules vfr VFR
WindCalm
Visibility9999 m
Phenomena:N/A
Clouds:N/A
CeilingNone
Temp24°C
Dew Point24°C (100% RH)
QNH1016 hPa
Raw Report
KINF 200235Z AUTO 00000KT 10SM CLR 24/24 A3001 RMK AO2=

Extra information for KINF:More info

Social comments